Time;durP1;ratioP1;P1;durP2;ratioP2;P2;SDS_P1;SDS_P2;PMS_P1;PMS_P2;Temp;Humidity;BMP_temperature;BMP_pressure;BME280_temperature;BME280_humidity;BME280_pressure;Samples;Min_cycle;Max_cycle;Signal;HPM_P1;HPM_P2
2021/01/22 00:00:38;;;;;;;0.55;0.20;;;;;;;;;;5088510;28;20868;-64
2021/01/22 00:03:04;;;;;;;0.55;0.20;;;;;;;;;;5089574;28;20466;-65
2021/01/22 00:05:29;;;;;;;0.50;0.30;;;;;;;;;;5093988;28;20020;-65
2021/01/22 00:07:54;;;;;;;0.63;0.20;;;;;;;;;;5095084;28;20020;-64
2021/01/22 00:10:19;;;;;;;0.40;0.20;;;;;;;;;;5092467;28;20399;-65
2021/01/22 00:12:44;;;;;;;0.63;0.20;;;;;;;;;;5094408;28;20020;-66
2021/01/22 00:15:10;;;;;;;1.20;0.20;;;;;;;;;;5094889;28;20085;-65
2021/01/22 00:17:35;;;;;;;0.57;0.20;;;;;;;;;;5093805;28;20360;-65
2021/01/22 00:20:00;;;;;;;0.80;0.20;;;;;;;;;;5090847;28;20501;-65
2021/01/22 00:22:25;;;;;;;0.43;0.20;;;;;;;;;;5093450;28;20024;-65
2021/01/22 00:24:51;;;;;;;0.30;0.20;;;;;;;;;;5095293;28;20027;-65
2021/01/22 00:27:16;;;;;;;1.00;0.20;;;;;;;;;;5094254;28;20320;-65
2021/01/22 00:29:41;;;;;;;1.75;0.20;;;;;;;;;;5089248;28;20107;-64
2021/01/22 00:32:06;;;;;;;0.93;0.20;;;;;;;;;;5093114;28;20028;-64
2021/01/22 00:34:31;;;;;;;0.52;0.20;;;;;;;;;;5095070;28;20020;-65
2021/01/22 00:36:57;;;;;;;0.35;0.20;;;;;;;;;;5088666;28;20024;-65
2021/01/22 00:39:22;;;;;;;0.40;0.20;;;;;;;;;;5091540;28;20020;-66
2021/01/22 00:41:47;;;;;;;0.30;0.20;;;;;;;;;;5093521;28;20016;-65
2021/01/22 00:44:13;;;;;;;0.68;0.20;;;;;;;;;;5095421;28;20458;-65
2021/01/22 00:46:38;;;;;;;0.30;0.10;;;;;;;;;;5091464;28;20383;-64
2021/01/22 00:49:03;;;;;;;0.20;0.20;;;;;;;;;;5089893;28;20031;-65
2021/01/22 00:51:28;;;;;;;0.20;0.10;;;;;;;;;;5092388;28;20465;-65
2021/01/22 00:53:54;;;;;;;1.08;0.10;;;;;;;;;;5094539;28;20012;-65
2021/01/22 00:56:19;;;;;;;1.25;0.10;;;;;;;;;;5094092;28;20013;-66
2021/01/22 00:58:44;;;;;;;0.15;0.10;;;;;;;;;;5091339;28;20016;-66
2021/01/22 01:01:09;;;;;;;0.77;0.10;;;;;;;;;;5086146;28;20043;-65
2021/01/22 01:03:34;;;;;;;1.08;0.10;;;;;;;;;;5082974;28;20031;-65
2021/01/22 01:06:00;;;;;;;0.38;0.10;;;;;;;;;;5092066;28;20016;-65
2021/01/22 01:08:25;;;;;;;0.30;0.10;;;;;;;;;;5092917;28;20023;-66
2021/01/22 01:10:50;;;;;;;0.00;0.00;;;;;;;;;;5090470;28;20040;-65
2021/01/22 01:13:15;;;;;;;0.10;0.10;;;;;;;;;;5094162;28;20016;-65
2021/01/22 01:15:41;;;;;;;0.20;0.10;;;;;;;;;;5092248;28;20055;-65
2021/01/22 01:18:06;;;;;;;0.30;0.00;;;;;;;;;;5093878;28;20091;-65
2021/01/22 01:20:31;;;;;;;0.40;0.10;;;;;;;;;;5089464;28;20024;-65
2021/01/22 01:22:57;;;;;;;0.15;0.10;;;;;;;;;;5093825;28;20405;-65
2021/01/22 01:25:22;;;;;;;0.30;0.10;;;;;;;;;;5093449;28;20473;-65
2021/01/22 01:27:47;;;;;;;0.10;0.00;;;;;;;;;;5093644;28;20043;-65
2021/01/22 01:30:13;;;;;;;0.35;0.10;;;;;;;;;;5089176;28;20028;-65
2021/01/22 01:32:38;;;;;;;0.20;0.10;;;;;;;;;;5093241;28;20035;-65
2021/01/22 01:35:03;;;;;;;0.03;0.00;;;;;;;;;;5092392;28;20024;-65
2021/01/22 01:37:29;;;;;;;0.60;0.10;;;;;;;;;;5084225;28;20020;-65
2021/01/22 01:39:54;;;;;;;0.30;0.10;;;;;;;;;;5087567;28;20390;-65
2021/01/22 01:42:19;;;;;;;1.00;0.20;;;;;;;;;;5092787;28;20372;-66
2021/01/22 01:44:44;;;;;;;0.13;0.10;;;;;;;;;;5092576;28;20497;-65
2021/01/22 01:47:10;;;;;;;1.02;0.10;;;;;;;;;;5092989;28;20034;-65
2021/01/22 01:49:35;;;;;;;0.10;0.10;;;;;;;;;;5087846;28;20443;-65
2021/01/22 01:52:00;;;;;;;0.28;0.17;;;;;;;;;;5092864;28;20110;-66
2021/01/22 01:54:26;;;;;;;0.35;0.20;;;;;;;;;;5093319;28;20020;-65
2021/01/22 01:56:52;;;;;;;0.30;0.08;;;;;;;;;;5092188;28;20470;-65
2021/01/22 01:59:17;;;;;;;0.30;0.10;;;;;;;;;;5088822;28;20467;-66
2021/01/22 02:01:43;;;;;;;0.28;0.10;;;;;;;;;;5091627;28;20039;-66
2021/01/22 02:06:54;;;;;;;0.30;0.20;;;;;;;;;;5085656;28;20062;-65
2021/01/22 02:09:19;;;;;;;0.50;0.20;;;;;;;;;;5087730;28;20048;-65
2021/01/22 02:11:44;;;;;;;0.50;0.10;;;;;;;;;;5089580;28;20020;-65
2021/01/22 02:14:10;;;;;;;0.20;0.10;;;;;;;;;;5079059;28;20008;-65
2021/01/22 02:16:35;;;;;;;0.38;0.20;;;;;;;;;;5088363;28;20008;-65
2021/01/22 02:19:01;;;;;;;0.63;0.20;;;;;;;;;;5091374;28;20356;-65
2021/01/22 02:21:30;;;;;;;0.30;0.10;;;;;;;;;;5088995;28;20028;-65
2021/01/22 02:24:05;;;;;;;0.45;0.10;;;;;;;;;;5096950;28;20054;-65
2021/01/22 02:26:30;;;;;;;1.13;0.20;;;;;;;;;;5088479;28;20209;-65
2021/01/22 02:28:58;;;;;;;0.10;0.10;;;;;;;;;;5091416;28;20403;-65
2021/01/22 02:31:25;;;;;;;0.22;0.10;;;;;;;;;;5090363;28;20048;-65
2021/01/22 02:33:50;;;;;;;0.20;0.10;;;;;;;;;;5076485;28;20055;-65
2021/01/22 02:36:18;;;;;;;0.13;0.10;;;;;;;;;;5080925;28;20055;-65
2021/01/22 02:38:44;;;;;;;0.30;0.10;;;;;;;;;;5090072;28;20028;-65
2021/01/22 02:41:10;;;;;;;0.30;0.10;;;;;;;;;;5091926;28;20463;-65
2021/01/22 02:43:36;;;;;;;1.60;0.20;;;;;;;;;;5090922;28;20560;-65
2021/01/22 02:46:01;;;;;;;0.65;0.10;;;;;;;;;;5089095;28;20019;-64
2021/01/22 02:48:27;;;;;;;0.50;0.10;;;;;;;;;;5090785;28;20035;-65
2021/01/22 02:50:52;;;;;;;0.20;0.10;;;;;;;;;;5089740;28;20470;-65
2021/01/22 02:53:17;;;;;;;0.30;0.10;;;;;;;;;;5088669;28;20019;-66
2021/01/22 02:55:42;;;;;;;0.10;0.10;;;;;;;;;;5087404;28;20429;-66
2021/01/22 02:58:14;;;;;;;0.60;0.10;;;;;;;;;;5090692;28;20024;-66
2021/01/22 03:00:41;;;;;;;0.75;0.17;;;;;;;;;;5090855;28;20024;-66
2021/01/22 03:03:25;;;;;;;0.45;0.10;;;;;;;;;;5088786;28;20039;-66
2021/01/22 03:05:53;;;;;;;0.20;0.10;;;;;;;;;;5087060;28;20051;-66
2021/01/22 03:08:20;;;;;;;0.40;0.15;;;;;;;;;;5091162;28;20028;-67
2021/01/22 03:10:46;;;;;;;0.75;0.20;;;;;;;;;;5091644;28;20028;-67
2021/01/22 03:13:11;;;;;;;0.22;0.10;;;;;;;;;;5087170;28;20032;-66
2021/01/22 03:15:38;;;;;;;0.20;0.17;;;;;;;;;;5090897;28;20110;-65
2021/01/22 03:18:10;;;;;;;0.20;0.10;;;;;;;;;;5093382;28;20012;-65
2021/01/22 03:20:35;;;;;;;0.50;0.20;;;;;;;;;;5093550;28;20019;-65
2021/01/22 03:23:00;;;;;;;0.28;0.10;;;;;;;;;;5094468;28;20459;-64
2021/01/22 03:25:25;;;;;;;0.32;0.10;;;;;;;;;;5091172;28;20030;-65
2021/01/22 03:27:50;;;;;;;0.35;0.10;;;;;;;;;;5094484;28;20046;-65
2021/01/22 03:30:16;;;;;;;0.22;0.10;;;;;;;;;;5095051;28;20028;-66
2021/01/22 03:32:41;;;;;;;0.45;0.45;;;;;;;;;;5094490;28;20020;-65
2021/01/22 03:35:07;;;;;;;0.20;0.10;;;;;;;;;;5092196;28;20027;-66
2021/01/22 03:37:32;;;;;;;0.35;0.10;;;;;;;;;;5074894;28;20020;-65
2021/01/22 03:39:57;;;;;;;0.30;0.10;;;;;;;;;;5093747;28;20059;-66
2021/01/22 03:42:22;;;;;;;0.20;0.15;;;;;;;;;;5095183;28;20112;-66
2021/01/22 03:44:47;;;;;;;0.30;0.20;;;;;;;;;;5090746;28;20016;-67
2021/01/22 03:47:13;;;;;;;0.40;0.10;;;;;;;;;;5094491;28;20046;-66
2021/01/22 03:49:38;;;;;;;0.68;0.10;;;;;;;;;;5093312;28;20386;-67
2021/01/22 03:52:03;;;;;;;0.50;0.13;;;;;;;;;;5094976;28;20052;-66
2021/01/22 03:54:28;;;;;;;0.43;0.10;;;;;;;;;;5092153;28;20024;-66
2021/01/22 03:56:54;;;;;;;0.40;0.10;;;;;;;;;;5091789;28;20024;-66
2021/01/22 03:59:20;;;;;;;0.20;0.10;;;;;;;;;;5094590;28;20470;-66
2021/01/22 04:01:45;;;;;;;0.38;0.10;;;;;;;;;;5093998;28;20031;-66
2021/01/22 04:04:10;;;;;;;0.10;0.10;;;;;;;;;;5094467;28;20041;-66
2021/01/22 04:06:36;;;;;;;0.40;0.10;;;;;;;;;;5089815;28;20410;-66
2021/01/22 04:09:01;;;;;;;1.05;0.13;;;;;;;;;;5077290;28;20035;-66
2021/01/22 04:11:26;;;;;;;0.15;0.10;;;;;;;;;;5092998;28;20171;-66
2021/01/22 04:13:51;;;;;;;0.30;0.10;;;;;;;;;;5093435;28;20024;-66
2021/01/22 04:16:17;;;;;;;0.50;0.25;;;;;;;;;;5091768;28;20027;-66
2021/01/22 04:18:42;;;;;;;0.15;0.10;;;;;;;;;;5092760;28;20026;-66
2021/01/22 04:21:07;;;;;;;0.30;0.10;;;;;;;;;;5092466;28;20036;-66
2021/01/22 04:23:33;;;;;;;0.20;0.10;;;;;;;;;;5092938;28;20020;-66
2021/01/22 04:25:58;;;;;;;0.20;0.10;;;;;;;;;;5087959;28;20110;-66
2021/01/22 04:28:23;;;;;;;0.20;0.10;;;;;;;;;;5092264;28;20044;-66
2021/01/22 04:30:48;;;;;;;0.15;0.10;;;;;;;;;;5092368;28;20024;-66
2021/01/22 04:33:14;;;;;;;0.38;0.10;;;;;;;;;;5091484;28;20024;-66
2021/01/22 04:35:39;;;;;;;0.50;0.10;;;;;;;;;;5090661;28;20027;-66
2021/01/22 04:38:04;;;;;;;1.08;0.20;;;;;;;;;;5092777;28;20050;-66
2021/01/22 04:40:30;;;;;;;0.40;0.10;;;;;;;;;;5092449;28;20483;-67
2021/01/22 04:42:55;;;;;;;0.65;0.15;;;;;;;;;;5093454;28;20028;-66
2021/01/22 04:45:20;;;;;;;0.70;0.13;;;;;;;;;;5090490;28;20082;-66
2021/01/22 04:47:46;;;;;;;0.73;0.10;;;;;;;;;;5093429;28;20039;-65
2021/01/22 04:50:13;;;;;;;0.20;0.10;;;;;;;;;;5091477;28;20348;-66
2021/01/22 04:52:39;;;;;;;0.73;0.10;;;;;;;;;;5092620;28;20024;-66
2021/01/22 04:55:06;;;;;;;0.73;0.10;;;;;;;;;;5090993;28;20012;-67
2021/01/22 04:57:33;;;;;;;0.40;0.20;;;;;;;;;;5093220;28;20474;-66
2021/01/22 04:59:59;;;;;;;1.45;0.10;;;;;;;;;;5092802;28;20024;-66
2021/01/22 05:02:24;;;;;;;0.52;0.20;;;;;;;;;;5092921;28;20089;-66
2021/01/22 05:04:50;;;;;;;0.35;0.15;;;;;;;;;;5089491;28;20388;-67
2021/01/22 05:07:16;;;;;;;0.20;0.20;;;;;;;;;;5088521;28;20099;-66
2021/01/22 05:09:41;;;;;;;0.43;0.10;;;;;;;;;;5084161;28;20111;-66
2021/01/22 05:12:07;;;;;;;0.20;0.10;;;;;;;;;;5091790;28;20134;-66
2021/01/22 05:14:36;;;;;;;0.45;0.20;;;;;;;;;;5083126;28;20061;-66
2021/01/22 05:17:05;;;;;;;0.47;0.20;;;;;;;;;;5080128;28;20016;-67
2021/01/22 05:19:31;;;;;;;0.30;0.10;;;;;;;;;;5091848;28;20012;-66
2021/01/22 05:21:57;;;;;;;1.05;0.30;;;;;;;;;;5091501;28;20024;-66
2021/01/22 05:24:24;;;;;;;0.50;0.20;;;;;;;;;;5092316;28;20020;-67
2021/01/22 05:26:58;;;;;;;0.45;0.20;;;;;;;;;;5090375;28;20012;-66
2021/01/22 05:29:24;;;;;;;0.35;0.30;;;;;;;;;;5092143;28;20020;-66
2021/01/22 05:31:49;;;;;;;0.47;0.10;;;;;;;;;;5092385;28;20047;-67
2021/01/22 05:34:14;;;;;;;0.52;0.20;;;;;;;;;;5093217;28;20371;-66
2021/01/22 05:36:40;;;;;;;0.95;0.30;;;;;;;;;;5088814;28;20046;-66
2021/01/22 05:39:05;;;;;;;1.63;0.20;;;;;;;;;;5090574;28;20078;-66
2021/01/22 05:41:30;;;;;;;0.30;0.20;;;;;;;;;;5090525;28;20055;-66
2021/01/22 05:43:56;;;;;;;0.85;0.20;;;;;;;;;;5092063;28;20483;-66
2021/01/22 05:46:22;;;;;;;0.85;0.30;;;;;;;;;;5083939;28;20027;-66
2021/01/22 05:48:48;;;;;;;0.63;0.30;;;;;;;;;;5086653;28;20020;-67
2021/01/22 05:51:13;;;;;;;0.32;0.20;;;;;;;;;;5092456;28;20031;-67
2021/01/22 05:53:45;;;;;;;0.80;0.20;;;;;;;;;;5089940;28;20069;-65
2021/01/22 05:56:12;;;;;;;0.65;0.10;;;;;;;;;;5087900;28;20024;-66
2021/01/22 05:58:41;;;;;;;0.82;0.10;;;;;;;;;;5091525;28;20028;-66
2021/01/22 06:01:13;;;;;;;2.03;0.30;;;;;;;;;;5090634;28;20019;-67
2021/01/22 06:03:40;;;;;;;0.65;0.20;;;;;;;;;;5091973;28;20534;-67
2021/01/22 06:06:06;;;;;;;3.38;0.38;;;;;;;;;;5088629;28;20031;-66
2021/01/22 06:08:31;;;;;;;1.02;0.15;;;;;;;;;;5085496;28;20101;-67
2021/01/22 06:10:58;;;;;;;2.65;0.50;;;;;;;;;;5089114;28;20498;-66
2021/01/22 06:13:25;;;;;;;0.70;0.28;;;;;;;;;;5092389;28;20066;-66
2021/01/22 06:15:53;;;;;;;1.08;0.20;;;;;;;;;;5086510;28;20124;-66
2021/01/22 06:18:22;;;;;;;1.00;0.30;;;;;;;;;;5092126;28;20459;-66
2021/01/22 06:20:48;;;;;;;1.10;0.30;;;;;;;;;;5091538;28;20052;-67
2021/01/22 06:23:14;;;;;;;1.65;0.20;;;;;;;;;;5091286;28;20028;-67
2021/01/22 06:25:40;;;;;;;1.42;0.30;;;;;;;;;;5087417;28;20439;-66
2021/01/22 06:28:06;;;;;;;1.70;0.40;;;;;;;;;;5089280;28;20550;-67
2021/01/22 06:30:32;;;;;;;0.85;0.20;;;;;;;;;;5089499;28;20115;-66
2021/01/22 06:32:58;;;;;;;1.27;0.40;;;;;;;;;;5091888;28;20059;-65
2021/01/22 06:35:25;;;;;;;2.08;0.50;;;;;;;;;;5089068;28;20020;-67
2021/01/22 06:37:51;;;;;;;2.13;0.40;;;;;;;;;;5090819;28;20051;-67
2021/01/22 06:40:18;;;;;;;2.45;0.20;;;;;;;;;;5092043;28;20482;-68
2021/01/22 06:42:43;;;;;;;1.48;0.40;;;;;;;;;;5087094;28;20368;-67
2021/01/22 06:45:08;;;;;;;1.23;0.40;;;;;;;;;;5088860;28;20153;-67
2021/01/22 06:47:34;;;;;;;4.10;0.40;;;;;;;;;;5087801;28;20081;-65
2021/01/22 06:49:59;;;;;;;3.38;0.50;;;;;;;;;;5090751;28;20027;-66
2021/01/22 06:52:25;;;;;;;1.40;0.35;;;;;;;;;;5090139;28;20012;-65
2021/01/22 06:55:03;;;;;;;1.48;0.40;;;;;;;;;;5088692;28;20399;-66
2021/01/22 06:57:29;;;;;;;1.20;0.20;;;;;;;;;;5090619;28;20065;-66
2021/01/22 06:59:55;;;;;;;1.85;0.30;;;;;;;;;;5091713;28;20016;-66
2021/01/22 07:02:32;;;;;;;1.95;0.38;;;;;;;;;;5087302;28;20020;-66
2021/01/22 07:04:57;;;;;;;1.95;0.20;;;;;;;;;;5086305;28;20077;-65
2021/01/22 07:07:48;;;;;;;2.30;0.22;;;;;;;;;;5091087;28;20106;-66
2021/01/22 07:10:14;;;;;;;0.68;0.20;;;;;;;;;;5088034;28;20169;-66
2021/01/22 07:12:40;;;;;;;1.60;0.22;;;;;;;;;;5089076;28;20169;-67
2021/01/22 07:15:21;;;;;;;2.60;0.60;;;;;;;;;;5074057;28;20024;-66
2021/01/22 07:18:04;;;;;;;3.08;0.30;;;;;;;;;;5079539;28;20020;-65
2021/01/22 07:20:29;;;;;;;1.70;0.40;;;;;;;;;;5089949;28;20424;-66
2021/01/22 07:22:55;;;;;;;1.65;0.40;;;;;;;;;;5076603;28;20115;-65
2021/01/22 07:25:30;;;;;;;0.85;0.30;;;;;;;;;;5087285;28;20105;-66
2021/01/22 07:27:55;;;;;;;0.80;0.20;;;;;;;;;;5091200;28;20119;-65
2021/01/22 07:30:21;;;;;;;1.80;0.38;;;;;;;;;;5088929;28;20377;-66
2021/01/22 07:32:49;;;;;;;2.25;0.50;;;;;;;;;;5089330;28;20099;-67
2021/01/22 07:35:19;;;;;;;1.02;0.30;;;;;;;;;;5080422;28;20016;-67
2021/01/22 07:37:44;;;;;;;2.45;0.65;;;;;;;;;;5085408;28;20012;-66
2021/01/22 07:40:10;;;;;;;1.65;0.50;;;;;;;;;;5087319;28;20019;-67
2021/01/22 07:42:36;;;;;;;3.20;0.43;;;;;;;;;;5084503;28;20027;-68
2021/01/22 07:45:04;;;;;;;2.08;0.50;;;;;;;;;;5079718;28;20024;-66
2021/01/22 07:47:30;;;;;;;1.73;0.30;;;;;;;;;;5082518;28;20073;-67
2021/01/22 07:50:12;;;;;;;3.42;0.50;;;;;;;;;;5082262;28;20428;-66
2021/01/22 07:52:41;;;;;;;1.77;0.40;;;;;;;;;;5081399;28;20059;-67
2021/01/22 07:55:13;;;;;;;3.05;0.43;;;;;;;;;;5079428;28;20620;-66
2021/01/22 07:57:38;;;;;;;1.70;0.50;;;;;;;;;;5081151;28;20044;-66
2021/01/22 08:00:12;;;;;;;2.05;0.50;;;;;;;;;;5082751;28;20494;-67
2021/01/22 08:02:38;;;;;;;1.83;0.32;;;;;;;;;;5085854;28;20085;-66
2021/01/22 08:05:07;;;;;;;2.58;0.40;;;;;;;;;;5083650;28;20032;-67
2021/01/22 08:07:36;;;;;;;2.42;0.57;;;;;;;;;;5087668;28;20470;-66
2021/01/22 08:10:03;;;;;;;2.38;0.35;;;;;;;;;;5087437;28;20032;-67
2021/01/22 08:12:28;;;;;;;3.20;0.40;;;;;;;;;;5093223;28;20099;-68
2021/01/22 08:14:53;;;;;;;2.40;0.30;;;;;;;;;;5088906;28;20134;-67
2021/01/22 08:17:19;;;;;;;2.58;0.30;;;;;;;;;;5091162;28;20020;-67
2021/01/22 08:19:44;;;;;;;1.35;0.40;;;;;;;;;;5091551;28;20019;-66
2021/01/22 08:22:13;;;;;;;2.58;0.50;;;;;;;;;;5091870;28;20020;-67
2021/01/22 08:24:43;;;;;;;1.00;0.40;;;;;;;;;;5090238;28;20019;-68
2021/01/22 08:27:09;;;;;;;2.63;0.30;;;;;;;;;;5093270;28;20059;-67
2021/01/22 08:29:34;;;;;;;2.47;0.68;;;;;;;;;;5088851;28;20494;-67
2021/01/22 08:32:01;;;;;;;1.02;0.50;;;;;;;;;;5090447;28;20577;-69
2021/01/22 08:34:27;;;;;;;2.30;0.75;;;;;;;;;;5093182;28;20020;-67
2021/01/22 08:36:55;;;;;;;1.55;0.35;;;;;;;;;;5091327;28;20019;-68
2021/01/22 08:39:21;;;;;;;2.10;0.40;;;;;;;;;;5093181;28;20016;-67
2021/01/22 08:41:46;;;;;;;2.40;0.30;;;;;;;;;;5092982;28;20031;-66
2021/01/22 08:44:11;;;;;;;1.77;0.50;;;;;;;;;;5092956;28;20474;-67
2021/01/22 08:46:50;;;;;;;1.90;0.38;;;;;;;;;;5090239;28;20024;-66
2021/01/22 08:49:16;;;;;;;1.17;0.35;;;;;;;;;;5091002;28;20150;-67
2021/01/22 08:51:41;;;;;;;1.25;0.30;;;;;;;;;;5090960;28;20030;-66
2021/01/22 08:54:07;;;;;;;1.15;0.40;;;;;;;;;;5092869;28;20039;-66
2021/01/22 08:56:32;;;;;;;3.05;0.73;;;;;;;;;;5088252;28;20093;-66
2021/01/22 08:59:02;;;;;;;1.15;0.22;;;;;;;;;;5078520;28;20044;-65
2021/01/22 09:01:46;;;;;;;1.80;0.40;;;;;;;;;;5090669;28;20024;-67
2021/01/22 09:04:16;;;;;;;2.60;0.52;;;;;;;;;;5084836;28;20024;-67
2021/01/22 09:06:45;;;;;;;1.42;0.35;;;;;;;;;;5087503;28;20016;-66
2021/01/22 09:09:10;;;;;;;1.67;0.35;;;;;;;;;;5090998;28;20024;-67
2021/01/22 09:11:35;;;;;;;1.95;0.70;;;;;;;;;;5087653;28;20039;-67
2021/01/22 09:14:01;;;;;;;3.03;0.60;;;;;;;;;;5092207;28;20024;-67
2021/01/22 09:16:26;;;;;;;0.75;0.25;;;;;;;;;;5083937;28;20036;-67
2021/01/22 09:18:58;;;;;;;1.35;0.38;;;;;;;;;;5089915;28;20106;-68
2021/01/22 09:21:23;;;;;;;1.55;0.30;;;;;;;;;;5078006;28;20021;-66
2021/01/22 09:23:48;;;;;;;1.80;0.40;;;;;;;;;;5089933;28;20023;-67
2021/01/22 09:26:13;;;;;;;0.68;0.30;;;;;;;;;;5089811;28;20020;-66
2021/01/22 09:28:39;;;;;;;2.15;0.30;;;;;;;;;;5091950;28;20039;-66
2021/01/22 09:31:04;;;;;;;1.70;0.40;;;;;;;;;;5092364;28;20035;-67
2021/01/22 09:33:29;;;;;;;2.30;0.50;;;;;;;;;;5091463;28;20038;-66
2021/01/22 09:35:54;;;;;;;1.00;0.40;;;;;;;;;;5088972;28;20024;-67
2021/01/22 09:38:20;;;;;;;1.33;0.40;;;;;;;;;;5092222;28;20057;-67
2021/01/22 09:40:45;;;;;;;1.90;0.45;;;;;;;;;;5092704;28;20485;-68
2021/01/22 09:43:13;;;;;;;1.08;0.30;;;;;;;;;;5088071;28;20028;-68
2021/01/22 09:45:38;;;;;;;0.73;0.15;;;;;;;;;;5087416;28;20371;-67
2021/01/22 09:48:04;;;;;;;2.08;0.30;;;;;;;;;;5092050;28;20097;-68
2021/01/22 09:50:29;;;;;;;1.35;0.30;;;;;;;;;;5092523;28;20020;-67
2021/01/22 09:52:54;;;;;;;3.15;0.50;;;;;;;;;;5092482;28;20539;-67
2021/01/22 09:55:20;;;;;;;1.05;0.38;;;;;;;;;;5089669;28;20027;-67
2021/01/22 09:57:45;;;;;;;1.45;0.30;;;;;;;;;;5091193;28;20016;-66
2021/01/22 10:00:11;;;;;;;1.55;0.30;;;;;;;;;;5091304;28;20102;-67
2021/01/22 10:02:37;;;;;;;2.10;0.50;;;;;;;;;;5084846;28;20024;-66
2021/01/22 10:05:03;;;;;;;0.63;0.20;;;;;;;;;;5089542;28;20227;-67
2021/01/22 10:07:28;;;;;;;1.00;0.40;;;;;;;;;;5078518;28;20201;-68
2021/01/22 10:09:53;;;;;;;2.00;0.30;;;;;;;;;;5090444;28;20024;-68
2021/01/22 10:12:20;;;;;;;1.95;0.40;;;;;;;;;;5091880;28;20016;-69
2021/01/22 10:14:45;;;;;;;1.92;0.20;;;;;;;;;;5078602;28;20232;-68
2021/01/22 10:17:10;;;;;;;1.30;0.43;;;;;;;;;;5083600;28;20105;-68
2021/01/22 10:19:36;;;;;;;1.27;0.30;;;;;;;;;;5091544;28;20047;-67
2021/01/22 10:22:01;;;;;;;2.03;0.47;;;;;;;;;;5090924;28;20048;-68
2021/01/22 10:24:26;;;;;;;2.47;0.40;;;;;;;;;;5089141;28;20103;-67
2021/01/22 10:26:52;;;;;;;2.00;0.30;;;;;;;;;;5084446;28;20016;-69
2021/01/22 10:29:17;;;;;;;1.35;0.28;;;;;;;;;;5089843;28;20451;-68
2021/01/22 10:31:42;;;;;;;0.73;0.30;;;;;;;;;;5086301;28;20534;-67
2021/01/22 10:34:08;;;;;;;1.00;0.20;;;;;;;;;;5091436;28;20024;-68
2021/01/22 10:36:35;;;;;;;1.65;0.40;;;;;;;;;;5085381;28;20111;-67
2021/01/22 10:39:00;;;;;;;1.20;0.30;;;;;;;;;;5085656;28;20082;-67
2021/01/22 10:41:26;;;;;;;1.20;0.30;;;;;;;;;;5071504;28;20020;-68
2021/01/22 10:43:51;;;;;;;0.93;0.30;;;;;;;;;;5081513;28;20553;-68
2021/01/22 10:46:16;;;;;;;0.35;0.20;;;;;;;;;;5086965;28;20019;-68
2021/01/22 10:48:41;;;;;;;1.10;0.20;;;;;;;;;;5091077;28;20062;-68
2021/01/22 10:51:08;;;;;;;1.05;0.22;;;;;;;;;;5091453;28;20489;-67
2021/01/22 10:53:33;;;;;;;3.08;0.20;;;;;;;;;;5089369;28;20016;-68
2021/01/22 10:55:59;;;;;;;1.35;0.30;;;;;;;;;;5087229;28;20019;-67
2021/01/22 10:58:24;;;;;;;1.45;0.40;;;;;;;;;;5091222;28;20017;-68
2021/01/22 11:00:49;;;;;;;1.33;0.30;;;;;;;;;;5090926;28;20037;-68
2021/01/22 11:03:14;;;;;;;0.95;0.20;;;;;;;;;;5073240;28;20514;-68
2021/01/22 11:05:40;;;;;;;0.60;0.20;;;;;;;;;;5075775;28;20110;-69
2021/01/22 11:08:05;;;;;;;1.67;0.25;;;;;;;;;;5089770;28;20024;-68
2021/01/22 11:10:30;;;;;;;1.35;0.40;;;;;;;;;;5090738;28;20379;-68
2021/01/22 11:12:56;;;;;;;1.55;0.30;;;;;;;;;;5091547;28;20051;-69
2021/01/22 11:15:21;;;;;;;2.05;0.30;;;;;;;;;;5088493;28;20020;-68
2021/01/22 11:17:46;;;;;;;1.40;0.30;;;;;;;;;;5091312;28;20016;-68
2021/01/22 11:20:12;;;;;;;1.00;0.30;;;;;;;;;;5090043;28;20028;-69
2021/01/22 11:22:38;;;;;;;1.48;0.30;;;;;;;;;;5090643;28;20024;-68
2021/01/22 11:25:04;;;;;;;1.73;0.40;;;;;;;;;;5088329;28;20055;-67
2021/01/22 11:27:29;;;;;;;1.75;0.32;;;;;;;;;;5091140;28;20076;-68
2021/01/22 11:29:54;;;;;;;0.75;0.15;;;;;;;;;;5090698;28;20031;-68
2021/01/22 11:32:20;;;;;;;2.17;0.40;;;;;;;;;;5088492;28;20036;-67
2021/01/22 11:34:45;;;;;;;1.48;0.55;;;;;;;;;;5087082;28;20089;-68
2021/01/22 11:37:11;;;;;;;1.33;0.25;;;;;;;;;;5090071;28;20374;-68
2021/01/22 11:39:37;;;;;;;2.30;0.22;;;;;;;;;;5090863;28;20020;-69
2021/01/22 11:42:03;;;;;;;1.60;0.30;;;;;;;;;;5089610;28;20065;-68
2021/01/22 11:44:29;;;;;;;2.53;0.40;;;;;;;;;;5081350;28;20025;-68
2021/01/22 11:46:54;;;;;;;2.78;0.22;;;;;;;;;;5092125;28;20028;-69
2021/01/22 11:49:19;;;;;;;2.53;0.28;;;;;;;;;;5094516;28;20019;-67
2021/01/22 11:51:44;;;;;;;2.05;0.20;;;;;;;;;;5094951;28;20073;-67
2021/01/22 11:54:09;;;;;;;2.65;0.35;;;;;;;;;;5092863;28;20012;-68
2021/01/22 11:56:35;;;;;;;1.83;0.35;;;;;;;;;;5087987;28;20364;-67
2021/01/22 11:59:00;;;;;;;2.85;0.30;;;;;;;;;;5088763;28;20020;-68
2021/01/22 12:01:25;;;;;;;1.20;0.30;;;;;;;;;;5085732;28;20013;-68
2021/01/22 12:03:51;;;;;;;3.25;0.30;;;;;;;;;;5085799;28;20009;-68
2021/01/22 12:06:16;;;;;;;1.67;0.35;;;;;;;;;;5079669;28;20110;-68
2021/01/22 12:08:42;;;;;;;1.00;0.10;;;;;;;;;;5094275;28;20028;-67
2021/01/22 12:11:07;;;;;;;2.15;0.52;;;;;;;;;;5094429;28;20112;-67
2021/01/22 12:13:33;;;;;;;3.53;0.30;;;;;;;;;;5094185;28;20019;-67
2021/01/22 12:15:58;;;;;;;1.80;0.30;;;;;;;;;;5086776;28;20522;-67
2021/01/22 12:18:23;;;;;;;0.90;0.35;;;;;;;;;;5093469;28;20024;-67
2021/01/22 12:20:48;;;;;;;3.85;0.20;;;;;;;;;;5093419;28;20016;-68
2021/01/22 12:23:14;;;;;;;2.58;0.55;;;;;;;;;;5093934;28;20027;-68
2021/01/22 12:25:45;;;;;;;3.85;0.20;;;;;;;;;;5089812;28;20016;-68
2021/01/22 12:28:10;;;;;;;1.20;0.20;;;;;;;;;;5093640;28;20069;-69
2021/01/22 12:30:35;;;;;;;1.42;0.20;;;;;;;;;;5093714;28;20032;-69
2021/01/22 12:33:00;;;;;;;1.05;0.20;;;;;;;;;;5092328;28;20020;-68
2021/01/22 12:35:26;;;;;;;0.30;0.13;;;;;;;;;;5090942;28;20016;-68
2021/01/22 12:37:51;;;;;;;0.65;0.20;;;;;;;;;;5084561;28;20386;-68
2021/01/22 12:40:16;;;;;;;1.05;0.20;;;;;;;;;;5093866;28;20390;-68
2021/01/22 12:42:41;;;;;;;0.70;0.20;;;;;;;;;;5093246;28;20028;-69
2021/01/22 12:45:07;;;;;;;1.05;0.30;;;;;;;;;;5086447;28;20040;-68
2021/01/22 12:47:32;;;;;;;2.22;0.40;;;;;;;;;;5092047;28;20027;-67
2021/01/22 12:49:57;;;;;;;0.60;0.40;;;;;;;;;;5093490;28;20016;-66
2021/01/22 12:52:22;;;;;;;2.60;0.50;;;;;;;;;;5093484;28;20016;-67
2021/01/22 12:54:48;;;;;;;0.43;0.30;;;;;;;;;;5090657;28;20227;-67
2021/01/22 12:57:13;;;;;;;0.20;0.20;;;;;;;;;;5092135;28;20062;-67
2021/01/22 12:59:38;;;;;;;1.02;0.40;;;;;;;;;;5092952;28;20028;-66
2021/01/22 13:02:03;;;;;;;0.73;0.30;;;;;;;;;;5087146;28;20027;-66
2021/01/22 13:04:28;;;;;;;3.35;0.55;;;;;;;;;;5090130;28;20024;-66
2021/01/22 13:06:54;;;;;;;0.40;0.25;;;;;;;;;;5089608;28;20459;-66
2021/01/22 13:09:19;;;;;;;0.40;0.28;;;;;;;;;;5091813;28;20028;-66
2021/01/22 13:11:44;;;;;;;0.70;0.40;;;;;;;;;;5090645;28;20112;-66
2021/01/22 13:14:10;;;;;;;2.17;0.57;;;;;;;;;;5093210;28;20024;-67
2021/01/22 13:16:35;;;;;;;1.02;0.60;;;;;;;;;;5090388;28;20470;-67
2021/01/22 13:19:00;;;;;;;1.13;0.68;;;;;;;;;;5092544;28;20069;-67
2021/01/22 13:21:25;;;;;;;0.70;0.68;;;;;;;;;;5092969;28;20473;-67
2021/01/22 13:23:51;;;;;;;1.02;0.80;;;;;;;;;;5091791;28;20042;-67
2021/01/22 13:26:16;;;;;;;1.45;1.15;;;;;;;;;;5090223;28;20023;-67
2021/01/22 13:28:41;;;;;;;1.90;1.52;;;;;;;;;;5092017;28;20119;-67
2021/01/22 13:31:06;;;;;;;2.00;1.52;;;;;;;;;;5091385;28;20166;-68
2021/01/22 13:33:33;;;;;;;2.35;1.58;;;;;;;;;;5090293;28;20047;-67
2021/01/22 13:35:58;;;;;;;1.80;1.55;;;;;;;;;;5090059;28;20072;-67
2021/01/22 13:38:23;;;;;;;1.45;1.35;;;;;;;;;;5088619;28;20501;-67
2021/01/22 13:40:49;;;;;;;1.40;0.85;;;;;;;;;;5078878;28;20478;-68
2021/01/22 13:43:14;;;;;;;1.05;0.90;;;;;;;;;;5084537;28;20473;-68
2021/01/22 13:45:39;;;;;;;1.02;0.77;;;;;;;;;;5082937;28;20181;-68
2021/01/22 13:48:05;;;;;;;1.05;0.60;;;;;;;;;;5090562;28;20055;-69
2021/01/22 13:50:30;;;;;;;0.68;0.60;;;;;;;;;;5092402;28;20024;-69
2021/01/22 13:52:55;;;;;;;0.88;0.60;;;;;;;;;;5092237;28;20375;-70
2021/01/22 13:55:22;;;;;;;2.78;0.50;;;;;;;;;;5089446;28;20023;-70
2021/01/22 13:57:47;;;;;;;1.70;0.50;;;;;;;;;;5089175;28;20486;-68
2021/01/22 14:00:12;;;;;;;1.70;0.63;;;;;;;;;;5087929;28;20058;-69
2021/01/22 14:02:37;;;;;;;1.42;0.95;;;;;;;;;;5086646;28;20382;-68
2021/01/22 14:05:03;;;;;;;0.90;0.70;;;;;;;;;;5087247;28;20407;-69
2021/01/22 14:07:28;;;;;;;0.80;0.80;;;;;;;;;;5084980;28;20032;-68
2021/01/22 14:09:53;;;;;;;1.40;0.50;;;;;;;;;;5090892;28;20016;-69
2021/01/22 14:12:18;;;;;;;0.70;0.20;;;;;;;;;;5081879;28;20035;-69
2021/01/22 14:14:44;;;;;;;0.75;0.30;;;;;;;;;;5088192;28;20039;-70
2021/01/22 14:17:09;;;;;;;0.22;0.20;;;;;;;;;;5088308;28;20109;-70
2021/01/22 14:19:34;;;;;;;1.48;0.30;;;;;;;;;;5088853;28;20016;-69
2021/01/22 14:21:59;;;;;;;0.52;0.20;;;;;;;;;;5090308;28;20016;-69
2021/01/22 14:24:25;;;;;;;0.73;0.40;;;;;;;;;;5091700;28;20027;-70
2021/01/22 14:26:50;;;;;;;2.33;0.40;;;;;;;;;;5086848;28;20024;-71
2021/01/22 14:29:15;;;;;;;0.35;0.30;;;;;;;;;;5086318;28;20028;-70
2021/01/22 14:31:40;;;;;;;0.52;0.20;;;;;;;;;;5089912;28;20092;-69
2021/01/22 14:34:06;;;;;;;1.17;0.22;;;;;;;;;;5088981;28;20043;-68
2021/01/22 14:36:31;;;;;;;1.08;0.13;;;;;;;;;;5083763;28;20499;-67
2021/01/22 14:38:56;;;;;;;0.50;0.20;;;;;;;;;;5089572;28;20020;-68